Time;durP1;ratioP1;P1;durP2;ratioP2;P2;SDS_P1;SDS_P2;PMS_P1;PMS_P2;Temp;Humidity;BMP_temperature;BMP_pressure;BME280_temperature;BME280_humidity;BME280_pressure;Samples;Min_cycle;Max_cycle;Signal;HPM_P1;HPM_P2
2023/02/17 00:01:12;;;;;;;8.47;2.03;;;28.10;60.30;;;;;;5071833;28;20746;-70
2023/02/17 00:03:39;;;;;;;6.10;1.73;;;28.20;59.80;;;;;;5070920;28;20643;-71
2023/02/17 00:06:11;;;;;;;6.07;1.50;;;28.10;59.80;;;;;;5062739;28;20190;-71
2023/02/17 00:08:38;;;;;;;6.73;1.50;;;28.10;60.20;;;;;;5067115;28;20182;-71
2023/02/17 00:11:06;;;;;;;10.40;1.73;;;28.10;60.30;;;;;;5067538;28;20195;-71
2023/02/17 00:13:34;;;;;;;11.47;1.93;;;28.30;60.70;;;;;;5069430;28;20180;-71
2023/02/17 00:16:10;;;;;;;8.07;1.97;;;28.40;61.50;;;;;;5066177;28;20674;-73
2023/02/17 00:18:37;;;;;;;4.00;1.70;;;28.40;61.50;;;;;;5069662;28;20175;-72
2023/02/17 00:21:14;;;;;;;9.53;2.07;;;28.50;60.60;;;;;;5064292;28;20184;-71
2023/02/17 00:23:42;;;;;;;13.10;1.90;;;28.20;61.10;;;;;;5066186;28;20199;-71
2023/02/17 00:26:09;;;;;;;9.57;1.70;;;28.50;60.10;;;;;;5069012;28;20187;-70
2023/02/17 00:28:37;;;;;;;7.77;2.10;;;28.50;59.20;;;;;;5070789;28;20313;-71
2023/02/17 00:31:09;;;;;;;10.43;1.50;;;28.10;60.40;;;;;;5065636;28;20335;-70
2023/02/17 00:33:37;;;;;;;5.53;1.90;;;28.30;60.00;;;;;;5070657;28;20241;-71
2023/02/17 00:36:07;;;;;;;5.90;1.80;;;28.60;58.80;;;;;;5062095;28;20247;-70
2023/02/17 00:38:34;;;;;;;8.07;2.00;;;28.80;58.70;;;;;;5070885;28;20218;-71
2023/02/17 00:41:02;;;;;;;8.03;1.60;;;29.00;57.70;;;;;;5070534;28;20191;-71
2023/02/17 00:43:29;;;;;;;4.30;1.30;;;28.90;57.60;;;;;;5068482;28;20677;-71
2023/02/17 00:45:57;;;;;;;7.93;1.73;;;28.80;57.00;;;;;;5071260;28;20243;-78
2023/02/17 00:48:24;;;;;;;6.00;1.30;;;28.70;57.40;;;;;;5069018;28;21534;-73
2023/02/17 00:50:51;;;;;;;3.53;1.30;;;28.50;58.40;;;;;;5070547;28;20179;-73
2023/02/17 00:53:19;;;;;;;8.87;1.90;;;28.80;56.90;;;;;;5067389;28;20211;-74
2023/02/17 00:55:46;;;;;;;8.20;1.40;;;29.00;56.40;;;;;;5069285;28;20221;-71
2023/02/17 00:58:13;;;;;;;5.00;1.40;;;29.30;56.90;;;;;;5068623;28;20253;-71
2023/02/17 01:00:41;;;;;;;4.63;1.60;;;29.10;56.10;;;;;;5066670;28;20633;-72
2023/02/17 01:03:09;;;;;;;8.73;1.87;;;29.00;56.40;;;;;;5064033;28;20261;-71
2023/02/17 01:05:41;;;;;;;6.10;1.33;;;29.10;56.10;;;;;;5071095;28;20195;-73
2023/02/17 01:08:09;;;;;;;6.03;1.83;;;29.10;55.40;;;;;;5065189;28;20194;-70
2023/02/17 01:10:38;;;;;;;5.93;1.70;;;29.30;55.20;;;;;;5070045;28;20299;-71
2023/02/17 01:13:07;;;;;;;4.80;1.53;;;29.30;55.30;;;;;;5066381;28;20201;-71
2023/02/17 01:15:39;;;;;;;4.87;2.00;;;29.40;54.30;;;;;;5067470;28;20206;-71
2023/02/17 01:18:07;;;;;;;8.10;1.53;;;29.40;54.10;;;;;;5069850;28;20300;-70
2023/02/17 01:20:38;;;;;;;6.73;1.70;;;29.50;53.70;;;;;;5069904;28;20183;-70
2023/02/17 01:23:07;;;;;;;5.17;1.50;;;29.30;54.10;;;;;;5063507;28;20264;-72
2023/02/17 01:25:39;;;;;;;8.13;1.47;;;29.00;54.80;;;;;;5070744;28;20642;-71
2023/02/17 01:28:07;;;;;;;5.73;1.73;;;29.10;55.20;;;;;;5064819;28;20189;-71
2023/02/17 01:30:35;;;;;;;7.10;1.60;;;29.20;54.90;;;;;;5069230;28;20214;-71
2023/02/17 01:33:02;;;;;;;7.40;1.30;;;29.20;55.20;;;;;;5071908;28;20649;-71
2023/02/17 01:35:29;;;;;;;3.30;1.60;;;29.20;54.70;;;;;;5066769;28;20187;-73
2023/02/17 01:37:56;;;;;;;7.83;1.50;;;29.10;55.70;;;;;;5069666;28;20267;-70
2023/02/17 01:40:24;;;;;;;6.20;1.70;;;29.20;55.60;;;;;;5070893;28;20194;-71
2023/02/17 01:42:51;;;;;;;8.57;3.47;;;29.00;56.60;;;;;;5070175;28;20179;-71
2023/02/17 01:45:18;;;;;;;4.43;1.55;;;29.20;54.30;;;;;;5070683;28;20205;-74
2023/02/17 01:47:58;;;;;;;6.00;1.50;;;29.00;54.70;;;;;;5070834;28;20262;-70
2023/02/17 01:50:35;;;;;;;7.03;1.67;;;29.00;55.80;;;;;;5067928;28;20649;-76
2023/02/17 01:53:05;;;;;;;4.83;1.60;;;29.00;55.10;;;;;;5070880;28;20239;-71
2023/02/17 01:55:33;;;;;;;9.90;2.00;;;28.90;55.20;;;;;;5070019;28;20694;-71
2023/02/17 01:58:03;;;;;;;5.53;2.40;;;29.20;54.90;;;;;;5071523;28;20187;-70
2023/02/17 02:00:33;;;;;;;7.13;2.43;;;29.30;54.10;;;;;;5069870;28;20654;-71
2023/02/17 02:03:03;;;;;;;5.57;1.57;;;29.70;53.80;;;;;;5067980;28;20683;-71
2023/02/17 02:05:31;;;;;;;4.43;2.07;;;29.80;53.00;;;;;;5070532;28;20238;-71
2023/02/17 02:07:58;;;;;;;5.90;2.27;;;29.80;52.60;;;;;;5064228;28;20186;-70
2023/02/17 02:10:25;;;;;;;4.00;1.50;;;30.00;50.60;;;;;;5070961;28;20191;-72
2023/02/17 02:12:53;;;;;;;8.67;1.60;;;29.80;50.40;;;;;;5070551;28;20178;-74
2023/02/17 02:15:24;;;;;;;11.43;3.33;;;29.90;50.70;;;;;;5070799;28;20183;-69
2023/02/17 02:17:57;;;;;;;5.50;1.67;;;29.90;51.30;;;;;;5070371;28;20179;-71
2023/02/17 02:20:36;;;;;;;5.00;1.50;;;30.10;51.60;;;;;;5070512;28;20179;-73
2023/02/17 02:23:18;;;;;;;10.03;1.67;;;30.30;51.90;;;;;;5064941;28;20199;-70
2023/02/17 02:26:12;;;;;;;4.37;1.57;;;30.40;52.00;;;;;;5070015;28;20195;-72
2023/02/17 02:28:57;;;;;;;5.17;1.43;;;30.30;50.60;;;;;;5070390;28;20248;-71
2023/02/17 02:31:58;;;;;;;6.17;1.80;;;30.30;51.70;;;;;;5066989;28;20637;-71
2023/02/17 02:34:45;;;;;;;8.52;1.85;;;30.40;51.80;;;;;;5066429;28;20210;-71
2023/02/17 02:37:24;;;;;;;4.82;1.90;;;30.30;52.00;;;;;;5070325;28;20180;-73
2023/02/17 02:39:54;;;;;;;9.05;2.00;;;30.40;51.20;;;;;;5070247;28;20285;-76
2023/02/17 02:42:23;;;;;;;5.33;1.50;;;30.10;50.70;;;;;;5070377;28;20180;-74
2023/02/17 02:44:51;;;;;;;5.10;1.20;;;30.10;51.10;;;;;;5069376;28;20214;-71
2023/02/17 02:47:45;;;;;;;4.43;1.50;;;30.10;51.00;;;;;;5067336;28;20179;-71
2023/02/17 02:50:21;;;;;;;7.30;1.73;;;29.80;52.20;;;;;;5070244;28;20191;-77
2023/02/17 02:53:25;;;;;;;5.43;1.88;;;30.00;51.30;;;;;;5067146;28;20606;-71
2023/02/17 02:56:19;;;;;;;6.72;1.67;;;30.30;50.70;;;;;;5074172;28;20178;-74
2023/02/17 02:58:55;;;;;;;6.30;1.70;;;30.60;49.70;;;;;;5074031;28;20198;-71
2023/02/17 03:01:41;;;;;;;7.90;1.50;;;30.80;49.80;;;;;;5071085;28;20183;-71
2023/02/17 03:04:26;;;;;;;4.72;1.42;;;30.50;49.50;;;;;;5072847;28;20254;-71
2023/02/17 03:07:00;;;;;;;5.25;1.33;;;30.40;50.50;;;;;;5070113;28;20262;-73
2023/02/17 03:09:34;;;;;;;6.95;1.65;;;30.60;49.30;;;;;;5072326;28;20213;-76
2023/02/17 03:12:05;;;;;;;5.80;1.38;;;30.90;50.00;;;;;;5074256;28;20535;-76
2023/02/17 03:14:37;;;;;;;4.43;1.08;;;30.60;50.20;;;;;;5074391;28;20182;-76
2023/02/17 03:17:05;;;;;;;6.47;1.33;;;30.50;50.10;;;;;;5074583;28;20186;-74
2023/02/17 03:19:33;;;;;;;5.00;1.10;;;30.60;50.60;;;;;;5074331;28;20527;-73
2023/02/17 03:22:15;;;;;;;6.07;1.63;;;30.40;50.80;;;;;;5067267;28;20189;-77
2023/02/17 03:24:42;;;;;;;5.93;1.15;;;30.10;50.80;;;;;;5072784;28;20833;-71
2023/02/17 03:27:10;;;;;;;4.88;1.10;;;30.10;50.30;;;;;;5070693;28;20175;-71
2023/02/17 03:29:38;;;;;;;5.73;1.17;;;30.20;50.50;;;;;;5073626;28;20684;-74
2023/02/17 03:32:06;;;;;;;6.10;1.37;;;29.90;51.70;;;;;;5074135;28;20275;-72
2023/02/17 03:34:33;;;;;;;5.45;1.40;;;30.10;51.80;;;;;;5073817;28;20187;-69
2023/02/17 03:37:01;;;;;;;3.83;1.50;;;30.10;51.20;;;;;;5073645;28;20205;-72
2023/02/17 03:39:29;;;;;;;4.72;1.30;;;30.20;51.90;;;;;;5073715;28;20552;-70
2023/02/17 03:41:56;;;;;;;8.60;1.17;;;30.30;51.90;;;;;;5073599;28;20652;-71
2023/02/17 03:44:23;;;;;;;4.28;1.42;;;30.30;52.00;;;;;;5070586;28;20226;-71
2023/02/17 03:46:51;;;;;;;6.07;1.33;;;30.70;51.20;;;;;;5073528;28;20203;-70
2023/02/17 03:49:18;;;;;;;2.78;1.08;;;30.60;50.50;;;;;;5073485;28;20194;-76
2023/02/17 03:51:45;;;;;;;5.38;1.30;;;30.30;50.90;;;;;;5073050;28;20183;-71
2023/02/17 03:54:13;;;;;;;3.25;1.02;;;30.70;50.70;;;;;;5073139;28;20180;-71
2023/02/17 03:56:40;;;;;;;4.03;1.25;;;30.20;51.40;;;;;;5072565;28;20249;-71
2023/02/17 03:59:08;;;;;;;3.90;1.33;;;30.60;50.90;;;;;;5071437;28;20214;-72
2023/02/17 04:01:36;;;;;;;5.75;1.35;;;30.70;50.40;;;;;;5070303;28;20184;-74
2023/02/17 04:04:03;;;;;;;11.63;1.20;;;30.80;50.80;;;;;;5072108;28;20222;-71
2023/02/17 04:06:31;;;;;;;3.83;1.40;;;31.00;50.60;;;;;;5069217;28;20572;-71
2023/02/17 04:09:02;;;;;;;6.18;1.52;;;30.80;50.00;;;;;;5072808;28;20199;-77
2023/02/17 04:11:35;;;;;;;4.65;1.17;;;30.20;51.90;;;;;;5073177;28;20194;-79
2023/02/17 04:14:06;;;;;;;3.80;1.23;;;30.30;52.40;;;;;;5072856;28;20624;-74
2023/02/17 04:16:39;;;;;;;5.65;1.20;;;30.10;53.00;;;;;;5071761;28;20187;-77
2023/02/17 04:19:11;;;;;;;3.80;1.15;;;30.50;52.00;;;;;;5073653;28;20175;-76
2023/02/17 04:21:59;;;;;;;7.25;1.67;;;30.30;52.70;;;;;;5071139;28;20269;-74
2023/02/17 04:24:27;;;;;;;7.38;1.23;;;30.30;53.30;;;;;;5070017;28;20217;-74
2023/02/17 04:26:54;;;;;;;6.18;1.33;;;30.60;52.20;;;;;;5067805;28;20175;-76
2023/02/17 04:29:21;;;;;;;4.22;0.98;;;31.00;51.70;;;;;;5068601;28;20542;-78
2023/02/17 04:31:49;;;;;;;4.30;1.20;;;30.50;52.30;;;;;;5072196;28;20179;-71
2023/02/17 04:34:16;;;;;;;6.35;1.65;;;30.70;52.30;;;;;;5068181;28;20191;-74
2023/02/17 04:36:43;;;;;;;4.85;1.55;;;30.50;53.20;;;;;;5072245;28;20182;-77
2023/02/17 04:39:11;;;;;;;6.35;1.40;;;30.10;54.10;;;;;;5071060;28;20183;-73
2023/02/17 04:41:38;;;;;;;4.93;1.35;;;30.40;53.90;;;;;;5070319;28;20187;-74
2023/02/17 04:44:05;;;;;;;6.93;1.25;;;30.90;53.00;;;;;;5071640;28;20215;-71
2023/02/17 04:46:32;;;;;;;6.68;1.10;;;30.70;53.70;;;;;;5069496;28;20187;-72
2023/02/17 04:49:00;;;;;;;2.88;1.00;;;30.70;53.10;;;;;;5071770;28;20179;-71
2023/02/17 04:51:27;;;;;;;9.05;1.42;;;31.00;52.40;;;;;;5070286;28;20685;-71
2023/02/17 04:53:55;;;;;;;8.32;1.70;;;31.00;51.90;;;;;;5071042;28;20183;-73
2023/02/17 04:56:22;;;;;;;6.22;1.52;;;31.00;52.20;;;;;;5071943;28;20273;-73
2023/02/17 04:58:49;;;;;;;4.30;1.25;;;30.70;52.70;;;;;;5071658;27;20333;-76
2023/02/17 05:01:17;;;;;;;5.45;1.05;;;30.80;52.60;;;;;;5071895;28;20305;-70
2023/02/17 05:03:44;;;;;;;7.13;1.70;;;30.70;52.40;;;;;;5071006;28;20234;-76
2023/02/17 05:06:11;;;;;;;3.92;1.17;;;30.70;52.40;;;;;;5070212;28;20245;-71
2023/02/17 05:08:39;;;;;;;5.82;1.30;;;30.50;53.30;;;;;;5070434;28;20233;-73
2023/02/17 05:11:06;;;;;;;4.20;1.05;;;30.60;53.20;;;;;;5071381;28;20209;-76
2023/02/17 05:13:34;;;;;;;7.15;1.48;;;31.00;52.10;;;;;;5070288;28;20325;-70
2023/02/17 05:16:01;;;;;;;4.10;1.05;;;30.90;52.50;;;;;;5064267;28;20229;-73
2023/02/17 05:18:28;;;;;;;4.03;1.13;;;31.20;51.60;;;;;;5070932;28;20187;-70
2023/02/17 05:20:55;;;;;;;4.88;1.30;;;31.70;51.70;;;;;;5071098;28;20178;-74
2023/02/17 05:23:23;;;;;;;6.82;1.48;;;31.00;51.10;;;;;;5061458;28;20243;-70
2023/02/17 05:25:50;;;;;;;2.90;0.95;;;30.90;51.90;;;;;;5068163;28;20465;-78
2023/02/17 05:28:18;;;;;;;5.53;1.50;;;30.80;51.90;;;;;;5072088;28;20195;-68
2023/02/17 05:30:47;;;;;;;8.23;1.55;;;30.80;51.20;;;;;;5071267;28;20179;-68
2023/02/17 05:33:14;;;;;;;5.13;1.60;;;31.30;50.60;;;;;;5060011;28;20190;-67
2023/02/17 05:35:42;;;;;;;5.30;1.52;;;30.90;51.20;;;;;;5068559;28;20206;-70
2023/02/17 05:38:09;;;;;;;7.22;1.30;;;30.60;52.90;;;;;;5059863;28;20179;-67
2023/02/17 05:40:36;;;;;;;4.47;0.98;;;30.40;52.20;;;;;;5066272;28;20190;-69
2023/02/17 05:43:04;;;;;;;4.57;1.23;;;30.20;53.50;;;;;;5067072;28;20630;-68
2023/02/17 05:45:31;;;;;;;4.90;1.30;;;31.10;52.40;;;;;;5068692;28;20195;-73
2023/02/17 05:47:58;;;;;;;5.80;1.27;;;31.00;51.80;;;;;;5071561;28;20176;-68
2023/02/17 05:50:25;;;;;;;5.18;1.45;;;31.00;52.00;;;;;;5070132;28;20187;-70
2023/02/17 05:52:53;;;;;;;3.03;1.20;;;30.70;53.10;;;;;;5064988;28;20207;-74
2023/02/17 05:55:21;;;;;;;7.68;1.50;;;30.30;53.90;;;;;;5065712;28;20233;-72
2023/02/17 05:57:48;;;;;;;3.15;0.90;;;30.20;54.30;;;;;;5071172;28;20179;-75
2023/02/17 06:00:16;;;;;;;4.93;1.23;;;30.40;53.90;;;;;;5069997;28;20183;-75
2023/02/17 06:02:45;;;;;;;5.05;1.40;;;30.60;53.80;;;;;;5058267;28;20179;-74
2023/02/17 06:05:12;;;;;;;5.15;1.40;;;30.60;54.00;;;;;;5065726;28;20228;-73
2023/02/17 06:07:39;;;;;;;5.72;1.40;;;30.80;53.10;;;;;;5065603;28;20197;-72
2023/02/17 06:10:08;;;;;;;6.90;1.42;;;30.80;53.20;;;;;;5070232;28;20230;-70
2023/02/17 06:12:35;;;;;;;4.43;1.33;;;30.60;53.90;;;;;;5071355;28;20267;-69
2023/02/17 06:15:03;;;;;;;9.90;1.52;;;30.40;55.40;;;;;;5071304;28;20248;-71
2023/02/17 06:17:30;;;;;;;5.35;1.33;;;30.60;55.70;;;;;;5070273;28;20183;-74
2023/02/17 06:19:57;;;;;;;5.82;1.30;;;30.70;54.90;;;;;;5057028;28;20183;-72
2023/02/17 06:22:25;;;;;;;5.80;1.60;;;30.00;55.90;;;;;;5069191;28;20243;-78
2023/02/17 06:24:52;;;;;;;6.93;1.50;;;30.20;56.50;;;;;;5069931;28;22031;-74
2023/02/17 06:27:19;;;;;;;4.63;1.60;;;30.60;56.20;;;;;;5067572;28;20237;-73
2023/02/17 06:29:47;;;;;;;5.32;1.13;;;30.80;55.80;;;;;;5074030;28;20578;-75
2023/02/17 06:32:14;;;;;;;6.70;1.52;;;30.10;58.30;;;;;;5074758;28;20634;-78
2023/02/17 06:34:41;;;;;;;5.05;1.25;;;29.50;61.20;;;;;;5070270;28;20191;-74
2023/02/17 06:37:09;;;;;;;7.13;1.38;;;29.60;61.00;;;;;;5071686;28;20175;-70
2023/02/17 06:39:36;;;;;;;8.38;1.88;;;29.80;60.10;;;;;;5072820;28;20218;-79
2023/02/17 06:42:04;;;;;;;5.57;1.30;;;29.50;61.30;;;;;;5071653;28;20179;-70
2023/02/17 06:44:31;;;;;;;6.20;1.60;;;29.70;61.50;;;;;;5071182;28;20245;-72
2023/02/17 06:46:59;;;;;;;6.10;1.50;;;30.10;59.20;;;;;;5072819;28;20179;-76
2023/02/17 06:49:27;;;;;;;7.43;1.50;;;29.20;61.70;;;;;;5073672;28;20642;-76
2023/02/17 06:51:54;;;;;;;3.28;1.23;;;29.40;61.80;;;;;;5071345;28;20236;-77
2023/02/17 06:54:21;;;;;;;9.15;2.17;;;29.30;61.70;;;;;;5068543;28;20539;-74
2023/02/17 06:56:49;;;;;;;7.03;1.30;;;29.80;60.20;;;;;;5072943;28;20179;-72
2023/02/17 06:59:16;;;;;;;7.18;1.75;;;30.00;59.50;;;;;;5078811;28;20187;-73
2023/02/17 07:01:44;;;;;;;6.10;1.33;;;29.80;60.10;;;;;;5067382;28;20529;-70
2023/02/17 07:04:11;;;;;;;5.75;1.73;;;29.50;61.40;;;;;;5072743;28;20241;-70
2023/02/17 07:06:38;;;;;;;5.38;2.03;;;29.80;60.40;;;;;;5073522;28;20668;-73
2023/02/17 07:09:06;;;;;;;9.93;2.10;;;29.10;62.00;;;;;;5069833;28;20221;-71
2023/02/17 07:11:33;;;;;;;5.18;1.70;;;29.70;60.50;;;;;;5066992;28;20188;-69
2023/02/17 07:14:01;;;;;;;5.28;1.52;;;29.80;60.60;;;;;;5069613;28;20185;-69
2023/02/17 07:16:28;;;;;;;8.93;1.50;;;30.10;58.90;;;;;;5053641;28;20605;-74
2023/02/17 07:18:56;;;;;;;5.65;1.27;;;29.90;59.80;;;;;;5073762;28;20186;-70
2023/02/17 07:21:23;;;;;;;10.33;1.30;;;29.30;62.20;;;;;;5070726;28;20184;-71
2023/02/17 07:23:50;;;;;;;8.32;1.60;;;29.10;62.60;;;;;;5068708;28;20795;-72
2023/02/17 07:26:18;;;;;;;6.00;1.30;;;29.30;62.30;;;;;;5073878;28;20211;-72
2023/02/17 07:28:45;;;;;;;8.43;1.50;;;29.20;62.30;;;;;;5071014;28;20693;-74
2023/02/17 07:31:15;;;;;;;11.50;1.73;;;28.70;64.10;;;;;;5068809;28;20180;-72
2023/02/17 07:33:44;;;;;;;7.93;2.80;;;28.80;63.80;;;;;;5073093;28;20238;-76
2023/02/17 07:36:13;;;;;;;9.97;1.87;;;28.70;64.10;;;;;;5073686;28;20183;-72
2023/02/17 07:38:41;;;;;;;8.33;1.97;;;28.60;65.40;;;;;;5073236;28;20179;-73
2023/02/17 07:41:15;;;;;;;5.97;1.57;;;28.30;65.50;;;;;;5071182;28;20281;-74
2023/02/17 07:43:43;;;;;;;7.30;1.73;;;28.20;66.60;;;;;;5072138;28;20219;-70
2023/02/17 07:46:11;;;;;;;6.57;1.60;;;28.20;67.20;;;;;;5072917;28;20530;-77
2023/02/17 07:48:39;;;;;;;5.70;1.50;;;27.80;66.80;;;;;;5071188;28;20180;-75
2023/02/17 07:51:12;;;;;;;6.63;1.80;;;27.60;67.60;;;;;;5072651;28;20183;-74
2023/02/17 07:53:39;;;;;;;8.30;2.10;;;27.60;67.70;;;;;;5069367;28;20234;-70
2023/02/17 07:56:09;;;;;;;6.17;1.87;;;27.30;69.40;;;;;;5063482;28;20731;-72
2023/02/17 07:58:38;;;;;;;8.30;1.83;;;27.30;68.70;;;;;;5072340;28;20673;-71
2023/02/17 08:01:07;;;;;;;6.37;1.67;;;27.30;69.20;;;;;;5070821;28;20175;-70
2023/02/17 08:03:34;;;;;;;6.83;1.60;;;26.70;70.30;;;;;;5054501;28;20226;-69
2023/02/17 08:06:02;;;;;;;9.43;1.90;;;26.20;72.50;;;;;;5070761;28;20681;-71
2023/02/17 08:14:02;;;;;;;8.63;1.90;;;25.70;74.90;;;;;;5066051;28;20662;-73
2023/02/17 08:16:29;;;;;;;7.70;1.53;;;25.60;74.90;;;;;;5069362;28;20187;-68
2023/02/17 08:18:57;;;;;;;7.53;1.73;;;25.50;75.40;;;;;;5071439;28;20198;-70
2023/02/17 08:21:26;;;;;;;7.87;1.90;;;25.40;75.60;;;;;;5069723;28;20191;-68
2023/02/17 08:23:54;;;;;;;6.93;1.93;;;25.40;75.60;;;;;;5067785;28;20207;-69
2023/02/17 08:26:22;;;;;;;9.20;2.07;;;25.30;76.10;;;;;;5071853;28;20561;-69
2023/02/17 08:28:50;;;;;;;5.20;1.60;;;25.20;75.60;;;;;;5070710;28;20183;-70
2023/02/17 08:31:23;;;;;;;6.23;1.83;;;25.20;76.10;;;;;;5066693;28;20270;-69
2023/02/17 08:33:51;;;;;;;11.23;1.80;;;25.10;76.30;;;;;;5067106;28;20272;-71
2023/02/17 08:36:21;;;;;;;10.13;2.07;;;25.10;76.30;;;;;;5066268;28;20179;-70
2023/02/17 08:38:49;;;;;;;11.20;2.07;;;25.20;76.00;;;;;;5064993;28;20213;-71
2023/02/17 08:41:21;;;;;;;7.73;1.97;;;25.00;75.90;;;;;;5070612;28;20653;-71
2023/02/17 08:43:49;;;;;;;7.97;1.63;;;25.00;76.00;;;;;;5068764;28;20219;-68
2023/02/17 08:46:18;;;;;;;12.23;1.90;;;25.00;76.30;;;;;;5071191;28;20171;-72
2023/02/17 08:48:46;;;;;;;9.03;1.97;;;25.00;76.40;;;;;;5071513;28;20203;-74
2023/02/17 08:51:16;;;;;;;10.10;1.93;;;24.80;76.70;;;;;;5067700;28;20183;-72
2023/02/17 08:53:45;;;;;;;7.73;1.90;;;24.80;76.70;;;;;;5067061;28;20188;-71
2023/02/17 08:56:12;;;;;;;7.97;1.40;;;24.80;77.20;;;;;;5069442;28;20304;-71
2023/02/17 08:58:40;;;;;;;11.60;1.83;;;24.70;77.60;;;;;;5065605;28;20546;-69
2023/02/17 09:01:07;;;;;;;8.60;1.90;;;24.60;78.00;;;;;;5070108;28;20183;-70
2023/02/17 09:03:39;;;;;;;8.10;1.77;;;24.60;78.10;;;;;;5067041;28;20293;-73
2023/02/17 09:06:08;;;;;;;10.17;1.83;;;24.60;78.30;;;;;;5071053;28;20187;-71
2023/02/17 09:08:35;;;;;;;6.33;1.73;;;24.60;78.70;;;;;;5065397;28;20254;-73
2023/02/17 09:11:03;;;;;;;7.30;1.93;;;24.60;78.70;;;;;;5069570;28;20187;-71
2023/02/17 09:13:30;;;;;;;8.23;1.63;;;24.50;79.20;;;;;;5067776;28;20598;-71
2023/02/17 09:15:58;;;;;;;8.07;1.77;;;24.40;79.70;;;;;;5071262;28;20710;-70
2023/02/17 09:18:25;;;;;;;11.50;2.00;;;24.40;79.80;;;;;;5067823;28;20172;-77
2023/02/17 09:20:53;;;;;;;11.27;2.50;;;24.40;80.10;;;;;;5069794;28;20182;-71
2023/02/17 09:23:20;;;;;;;13.27;2.20;;;24.40;80.50;;;;;;5071316;28;20298;-71
2023/02/17 09:25:48;;;;;;;10.13;2.10;;;24.30;80.60;;;;;;5066699;28;20183;-72
2023/02/17 09:28:15;;;;;;;9.57;1.60;;;24.30;80.80;;;;;;5064443;28;20187;-70
2023/02/17 09:30:42;;;;;;;8.77;2.07;;;24.20;81.00;;;;;;5067546;28;20735;-73
2023/02/17 09:33:10;;;;;;;16.33;2.10;;;24.30;81.20;;;;;;5065635;28;20179;-72
2023/02/17 09:35:44;;;;;;;8.60;2.10;;;24.20;81.30;;;;;;5062302;28;20179;-70
2023/02/17 09:38:11;;;;;;;10.93;2.37;;;24.10;81.70;;;;;;5066170;28;20179;-70
2023/02/17 09:40:47;;;;;;;14.17;2.40;;;24.10;81.70;;;;;;5070993;28;20552;-71
2023/02/17 09:43:22;;;;;;;14.57;2.20;;;24.10;81.90;;;;;;5070325;28;20190;-73
2023/02/17 09:46:28;;;;;;;10.80;2.33;;;24.00;81.90;;;;;;5066461;28;20174;-72
2023/02/17 09:49:02;;;;;;;7.97;2.10;;;24.10;82.20;;;;;;5062858;28;20195;-71
2023/02/17 09:51:38;;;;;;;15.00;2.30;;;24.00;82.10;;;;;;5069931;28;20182;-73
2023/02/17 09:54:15;;;;;;;13.30;2.23;;;24.00;81.90;;;;;;5065542;28;20178;-70
2023/02/17 09:56:47;;;;;;;10.43;1.83;;;24.00;81.90;;;;;;5070299;28;20222;-70
2023/02/17 09:59:16;;;;;;;11.33;2.40;;;24.00;81.80;;;;;;5065423;28;20179;-71
2023/02/17 10:01:45;;;;;;;8.70;2.07;;;24.00;81.80;;;;;;5068427;28;20190;-79
2023/02/17 10:04:21;;;;;;;9.00;1.80;;;23.90;81.90;;;;;;5068616;28;20222;-71
2023/02/17 10:07:06;;;;;;;14.87;2.53;;;23.90;81.80;;;;;;5067944;28;20533;-78
2023/02/17 10:10:24;;;;;;;14.70;2.47;;;23.80;81.80;;;;;;5069950;28;20672;-72
2023/02/17 10:12:59;;;;;;;15.20;2.47;;;23.80;82.00;;;;;;5031422;28;20184;-76
2023/02/17 10:15:34;;;;;;;7.63;1.83;;;23.80;81.70;;;;;;5033261;28;20188;-73
2023/02/17 10:18:40;;;;;;;13.63;2.43;;;23.90;81.90;;;;;;5050852;28;20281;-70
2023/02/17 10:21:11;;;;;;;8.30;1.90;;;23.90;82.00;;;;;;5023364;28;20544;-75
2023/02/17 10:23:39;;;;;;;8.60;2.10;;;23.90;81.50;;;;;;5052323;28;20222;-72
2023/02/17 10:26:18;;;;;;;11.83;2.20;;;23.80;81.50;;;;;;5070182;28;20556;-72
2023/02/17 10:29:00;;;;;;;12.87;2.77;;;23.80;81.90;;;;;;5069886;28;20175;-71
2023/02/17 10:31:44;;;;;;;4.87;1.90;;;23.80;81.70;;;;;;5069224;28;20241;-71
2023/02/17 10:34:40;;;;;;;6.10;1.80;;;23.80;81.70;;;;;;5070680;28;20179;-71
2023/02/17 10:37:17;;;;;;;13.07;2.03;;;23.80;81.70;;;;;;5067051;28;20477;-70
2023/02/17 10:39:57;;;;;;;12.63;2.03;;;23.80;81.80;;;;;;5064375;28;20549;-71
2023/02/17 10:42:30;;;;;;;9.23;2.10;;;23.80;81.70;;;;;;5063178;28;20179;-80
2023/02/17 10:45:16;;;;;;;16.27;2.30;;;23.80;81.70;;;;;;5069115;28;20614;-79
2023/02/17 10:47:44;;;;;;;12.13;2.30;;;23.80;81.80;;;;;;5068330;28;20611;-73
2023/02/17 10:50:21;;;;;;;11.13;2.40;;;23.80;82.00;;;;;;5070621;28;20236;-69
2023/02/17 10:52:50;;;;;;;11.70;2.30;;;23.80;82.20;;;;;;5070211;28;20275;-71
2023/02/17 10:55:53;;;;;;;19.40;2.33;;;23.80;82.10;;;;;;5067727;28;20268;-73
2023/02/17 10:58:36;;;;;;;18.07;2.27;;;23.70;82.30;;;;;;5069540;28;20261;-70
2023/02/17 11:01:05;;;;;;;11.50;2.50;;;23.80;82.40;;;;;;5063111;28;20237;-71
2023/02/17 11:03:35;;;;;;;10.03;2.30;;;23.80;82.50;;;;;;5067414;28;20595;-69
2023/02/17 11:06:19;;;;;;;15.60;2.50;;;23.70;82.40;;;;;;5070060;28;20183;-70
2023/02/17 11:08:49;;;;;;;13.73;2.60;;;23.70;82.60;;;;;;5069568;28;20215;-71
2023/02/17 11:11:20;;;;;;;13.27;2.40;;;23.70;82.80;;;;;;5069896;28;20198;-71
2023/02/17 11:14:05;;;;;;;13.97;2.50;;;23.70;82.50;;;;;;5061649;28;20230;-70
2023/02/17 11:16:57;;;;;;;8.13;2.10;;;23.70;82.30;;;;;;5072661;28;20187;-70
2023/02/17 11:19:28;;;;;;;11.30;2.00;;;23.70;82.50;;;;;;5070249;28;20218;-71
2023/02/17 11:21:58;;;;;;;13.20;2.67;;;23.70;82.30;;;;;;5071795;28;20195;-70
2023/02/17 11:24:27;;;;;;;9.83;2.07;;;23.70;82.60;;;;;;5072365;28;20233;-70
2023/02/17 11:27:23;;;;;;;11.47;2.10;;;23.70;82.50;;;;;;5070021;28;20171;-70
2023/02/17 11:29:50;;;;;;;12.00;2.33;;;23.70;82.90;;;;;;5072650;28;20183;-70
2023/02/17 11:32:18;;;;;;;10.33;2.00;;;23.70;82.70;;;;;;5073523;28;20696;-70
2023/02/17 11:34:57;;;;;;;16.33;2.27;;;23.70;82.70;;;;;;5072651;28;20592;-70
2023/02/17 11:37:26;;;;;;;11.07;1.60;;;23.70;82.70;;;;;;5073284;28;20183;-70
2023/02/17 11:39:54;;;;;;;11.27;2.00;;;23.60;82.80;;;;;;5071837;28;20589;-70
2023/02/17 11:42:32;;;;;;;11.53;2.50;;;23.60;82.80;;;;;;5069032;28;20191;-69
2023/02/17 11:45:17;;;;;;;10.77;2.43;;;23.60;82.90;;;;;;5073047;28;20215;-69
2023/02/17 11:48:03;;;;;;;11.87;1.90;;;23.50;82.80;;;;;;5073538;28;20225;-71
2023/02/17 11:50:47;;;;;;;10.47;2.10;;;23.60;82.90;;;;;;5070930;28;20241;-70
2023/02/17 11:53:52;;;;;;;17.53;2.50;;;23.50;82.90;;;;;;5073237;28;20198;-71
2023/02/17 11:56:28;;;;;;;10.50;2.00;;;23.50;83.00;;;;;;5073274;28;20191;-70
2023/02/17 11:59:10;;;;;;;11.97;2.33;;;23.50;83.00;;;;;;5071752;28;20546;-69
2023/02/17 12:01:53;;;;;;;9.53;2.10;;;23.50;83.10;;;;;;5072922;28;20191;-70
2023/02/17 12:04:23;;;;;;;13.60;2.40;;;23.50;83.10;;;;;;5067469;28;20237;-69
2023/02/17 12:07:01;;;;;;;11.60;2.00;;;23.40;83.20;;;;;;5071574;28;21475;-70
2023/02/17 12:09:55;;;;;;;12.07;2.23;;;23.40;83.30;;;;;;5069806;28;20213;-70
2023/02/17 12:12:25;;;;;;;6.43;1.87;;;23.30;83.20;;;;;;5072617;28;20175;-70
2023/02/17 12:15:07;;;;;;;11.33;2.53;;;23.30;83.30;;;;;;5066761;28;20221;-70
2023/02/17 12:17:50;;;;;;;12.03;2.10;;;23.30;83.30;;;;;;5069232;28;20245;-70
2023/02/17 12:20:18;;;;;;;13.67;2.33;;;23.30;83.30;;;;;;5069792;28;20214;-70
2023/02/17 12:22:54;;;;;;;12.83;2.17;;;23.30;83.00;;;;;;5070617;28;20179;-70
2023/02/17 12:26:11;;;;;;;11.30;2.00;;;23.30;83.30;;;;;;5068304;28;20218;-70
2023/02/17 12:29:14;;;;;;;14.27;2.30;;;23.30;83.30;;;;;;5061432;28;20202;-70
2023/02/17 12:31:58;;;;;;;9.13;1.90;;;23.30;83.50;;;;;;5071865;28;20179;-70
2023/02/17 12:34:38;;;;;;;10.40;2.53;;;23.30;83.30;;;;;;5069002;28;20193;-70
2023/02/17 12:37:13;;;;;;;13.37;2.50;;;23.30;83.30;;;;;;5064247;28;20188;-70
2023/02/17 12:39:53;;;;;;;7.60;1.97;;;23.30;83.10;;;;;;5070131;28;20262;-71
2023/02/17 12:42:36;;;;;;;12.93;2.47;;;23.30;83.10;;;;;;5070659;28;20677;-70
2023/02/17 12:45:07;;;;;;;15.83;2.00;;;23.30;83.10;;;;;;5067362;28;20556;-70
2023/02/17 12:47:55;;;;;;;13.50;2.57;;;23.20;83.20;;;;;;5070035;28;20213;-70
2023/02/17 12:50:31;;;;;;;15.60;2.20;;;23.30;83.30;;;;;;5071103;28;20183;-70
2023/02/17 12:53:04;;;;;;;8.57;2.37;;;23.20;83.30;;;;;;5067275;28;20567;-71
2023/02/17 12:55:47;;;;;;;9.40;2.50;;;23.20;83.40;;;;;;5064790;28;20301;-71
2023/02/17 12:58:27;;;;;;;15.20;2.40;;;23.20;83.50;;;;;;5067289;28;20672;-70
2023/02/17 13:01:00;;;;;;;13.50;2.57;;;23.20;83.50;;;;;;5069840;28;20179;-70
2023/02/17 13:03:32;;;;;;;12.37;2.37;;;23.10;83.70;;;;;;5068995;28;20218;-69
2023/02/17 13:06:02;;;;;;;16.93;2.50;;;23.10;83.70;;;;;;5065548;28;20176;-69
2023/02/17 13:08:46;;;;;;;15.03;2.50;;;23.10;83.80;;;;;;5069270;28;20183;-70
2023/02/17 13:11:35;;;;;;;11.33;1.87;;;23.10;83.90;;;;;;5061790;28;20190;-70
2023/02/17 13:14:25;;;;;;;8.67;1.90;;;23.10;83.90;;;;;;5068598;28;20184;-69